sensor_id;sensor_type;location;lat;lon;timestamp;temperature;humidity
61201;DHT22;47065;52.898;6.992;2022-12-24T00:02:09;6.90;99.90
61201;DHT22;47065;52.898;6.992;2022-12-24T00:04:34;6.90;99.90
61201;DHT22;47065;52.898;6.992;2022-12-24T00:07:00;6.90;99.90
61201;DHT22;47065;52.898;6.992;2022-12-24T00:09:25;6.90;99.90
61201;DHT22;47065;52.898;6.992;2022-12-24T00:11:51;7.00;99.90
61201;DHT22;47065;52.898;6.992;2022-12-24T00:14:17;6.90;99.90
61201;DHT22;47065;52.898;6.992;2022-12-24T00:16:42;7.00;99.90
61201;DHT22;47065;52.898;6.992;2022-12-24T00:19:08;6.90;99.90
61201;DHT22;47065;52.898;6.992;2022-12-24T00:21:33;7.00;99.90
61201;DHT22;47065;52.898;6.992;2022-12-24T00:23:59;6.90;99.90
61201;DHT22;47065;52.898;6.992;2022-12-24T00:26:28;6.90;99.90
61201;DHT22;47065;52.898;6.992;2022-12-24T00:28:54;6.90;99.90
61201;DHT22;47065;52.898;6.992;2022-12-24T00:31:19;6.90;99.90
61201;DHT22;47065;52.898;6.992;2022-12-24T00:33:46;7.00;99.90
61201;DHT22;47065;52.898;6.992;2022-12-24T00:36:12;7.00;99.90
61201;DHT22;47065;52.898;6.992;2022-12-24T00:38:38;6.90;99.90
61201;DHT22;47065;52.898;6.992;2022-12-24T00:41:05;6.90;99.90
61201;DHT22;47065;52.898;6.992;2022-12-24T00:43:52;7.00;99.90
61201;DHT22;47065;52.898;6.992;2022-12-24T00:46:18;7.00;99.90
61201;DHT22;47065;52.898;6.992;2022-12-24T00:48:43;7.00;99.90
61201;DHT22;47065;52.898;6.992;2022-12-24T00:51:09;7.00;99.90
61201;DHT22;47065;52.898;6.992;2022-12-24T00:53:35;7.00;99.90
61201;DHT22;47065;52.898;6.992;2022-12-24T00:56:00;7.10;99.90
61201;DHT22;47065;52.898;6.992;2022-12-24T00:58:26;7.10;99.90
61201;DHT22;47065;52.898;6.992;2022-12-24T01:00:52;7.10;99.90
61201;DHT22;47065;52.898;6.992;2022-12-24T01:03:17;7.10;99.90
61201;DHT22;47065;52.898;6.992;2022-12-24T01:05:43;7.20;99.90
61201;DHT22;47065;52.898;6.992;2022-12-24T01:08:08;7.20;99.90
61201;DHT22;47065;52.898;6.992;2022-12-24T01:10:34;7.30;99.90
61201;DHT22;47065;52.898;6.992;2022-12-24T01:13:01;7.30;99.90
61201;DHT22;47065;52.898;6.992;2022-12-24T01:15:28;7.40;99.90
61201;DHT22;47065;52.898;6.992;2022-12-24T01:17:53;7.50;99.90
61201;DHT22;47065;52.898;6.992;2022-12-24T01:20:20;7.60;99.90
61201;DHT22;47065;52.898;6.992;2022-12-24T01:22:46;7.60;99.90
61201;DHT22;47065;52.898;6.992;2022-12-24T01:25:13;7.70;99.90
61201;DHT22;47065;52.898;6.992;2022-12-24T01:27:39;7.80;99.90
61201;DHT22;47065;52.898;6.992;2022-12-24T01:30:07;7.80;99.90
61201;DHT22;47065;52.898;6.992;2022-12-24T01:32:33;7.80;99.90
61201;DHT22;47065;52.898;6.992;2022-12-24T01:34:59;7.80;99.90
61201;DHT22;47065;52.898;6.992;2022-12-24T01:37:25;7.80;99.90
61201;DHT22;47065;52.898;6.992;2022-12-24T01:39:50;7.80;99.90
61201;DHT22;47065;52.898;6.992;2022-12-24T01:42:37;7.90;99.90
61201;DHT22;47065;52.898;6.992;2022-12-24T01:51:00;8.00;99.90
61201;DHT22;47065;52.898;6.992;2022-12-24T01:53:27;8.00;99.90
61201;DHT22;47065;52.898;6.992;2022-12-24T01:55:54;8.10;99.90
61201;DHT22;47065;52.898;6.992;2022-12-24T01:58:20;8.10;99.90
61201;DHT22;47065;52.898;6.992;2022-12-24T02:00:48;8.20;99.90
61201;DHT22;47065;52.898;6.992;2022-12-24T02:03:14;8.20;99.90
61201;DHT22;47065;52.898;6.992;2022-12-24T02:05:49;8.20;99.90
61201;DHT22;47065;52.898;6.992;2022-12-24T02:08:16;8.20;99.90
61201;DHT22;47065;52.898;6.992;2022-12-24T02:10:43;8.20;99.90
61201;DHT22;47065;52.898;6.992;2022-12-24T02:13:09;8.30;99.90
61201;DHT22;47065;52.898;6.992;2022-12-24T02:15:53;8.30;99.90
61201;DHT22;47065;52.898;6.992;2022-12-24T02:18:45;8.30;99.90
61201;DHT22;47065;52.898;6.992;2022-12-24T02:21:27;8.30;99.90
61201;DHT22;47065;52.898;6.992;2022-12-24T02:32:38;8.40;99.90
61201;DHT22;47065;52.898;6.992;2022-12-24T02:35:26;8.40;99.90
61201;DHT22;47065;52.898;6.992;2022-12-24T02:37:55;8.50;99.90
61201;DHT22;47065;52.898;6.992;2022-12-24T02:40:56;8.50;99.90
61201;DHT22;47065;52.898;6.992;2022-12-24T02:43:26;8.50;99.90
61201;DHT22;47065;52.898;6.992;2022-12-24T02:45:58;8.50;99.90
61201;DHT22;47065;52.898;6.992;2022-12-24T02:48:25;8.50;99.90
61201;DHT22;47065;52.898;6.992;2022-12-24T02:51:02;8.50;99.90
61201;DHT22;47065;52.898;6.992;2022-12-24T02:53:28;8.60;99.90
61201;DHT22;47065;52.898;6.992;2022-12-24T02:58:46;8.60;99.90
61201;DHT22;47065;52.898;6.992;2022-12-24T03:12:28;8.70;99.90
61201;DHT22;47065;52.898;6.992;2022-12-24T03:14:54;8.70;99.90
61201;DHT22;47065;52.898;6.992;2022-12-24T03:17:21;8.70;99.90
61201;DHT22;47065;52.898;6.992;2022-12-24T03:19:46;8.70;99.90
61201;DHT22;47065;52.898;6.992;2022-12-24T03:22:13;8.70;99.90
61201;DHT22;47065;52.898;6.992;2022-12-24T03:24:40;8.70;99.90
61201;DHT22;47065;52.898;6.992;2022-12-24T03:27:07;8.80;99.90
61201;DHT22;47065;52.898;6.992;2022-12-24T03:29:34;8.70;99.90
61201;DHT22;47065;52.898;6.992;2022-12-24T03:32:01;8.70;99.90
61201;DHT22;47065;52.898;6.992;2022-12-24T03:34:28;8.70;99.90
61201;DHT22;47065;52.898;6.992;2022-12-24T03:36:54;8.70;99.90
61201;DHT22;47065;52.898;6.992;2022-12-24T03:39:20;8.70;99.90
61201;DHT22;47065;52.898;6.992;2022-12-24T03:41:46;8.70;99.90
61201;DHT22;47065;52.898;6.992;2022-12-24T03:44:12;8.70;99.90
61201;DHT22;47065;52.898;6.992;2022-12-24T03:46:38;8.70;99.90
61201;DHT22;47065;52.898;6.992;2022-12-24T03:49:03;8.70;99.90
61201;DHT22;47065;52.898;6.992;2022-12-24T03:51:29;8.70;99.90
61201;DHT22;47065;52.898;6.992;2022-12-24T03:53:55;8.70;99.90
61201;DHT22;47065;52.898;6.992;2022-12-24T03:56:22;8.70;99.90
61201;DHT22;47065;52.898;6.992;2022-12-24T03:58:48;8.70;99.90
61201;DHT22;47065;52.898;6.992;2022-12-24T04:01:14;8.70;99.90
61201;DHT22;47065;52.898;6.992;2022-12-24T04:03:40;8.60;99.90
61201;DHT22;47065;52.898;6.992;2022-12-24T04:06:14;8.70;99.90
61201;DHT22;47065;52.898;6.992;2022-12-24T04:08:40;8.60;99.90
61201;DHT22;47065;52.898;6.992;2022-12-24T04:11:10;8.60;99.90
61201;DHT22;47065;52.898;6.992;2022-12-24T04:13:36;8.60;99.90
61201;DHT22;47065;52.898;6.992;2022-12-24T04:16:05;8.60;99.90
61201;DHT22;47065;52.898;6.992;2022-12-24T04:18:31;8.60;99.90
61201;DHT22;47065;52.898;6.992;2022-12-24T04:20:57;8.60;99.90
61201;DHT22;47065;52.898;6.992;2022-12-24T04:23:23;8.60;99.90
61201;DHT22;47065;52.898;6.992;2022-12-24T04:25:49;8.60;99.90
61201;DHT22;47065;52.898;6.992;2022-12-24T04:28:15;8.60;99.90
61201;DHT22;47065;52.898;6.992;2022-12-24T04:30:41;8.70;99.90
61201;DHT22;47065;52.898;6.992;2022-12-24T04:33:07;8.70;99.90
61201;DHT22;47065;52.898;6.992;2022-12-24T04:35:33;8.70;99.90
61201;DHT22;47065;52.898;6.992;2022-12-24T04:38:02;8.70;99.90
61201;DHT22;47065;52.898;6.992;2022-12-24T04:40:28;8.70;99.90
61201;DHT22;47065;52.898;6.992;2022-12-24T04:42:54;8.60;99.90
61201;DHT22;47065;52.898;6.992;2022-12-24T04:45:19;8.70;99.90
61201;DHT22;47065;52.898;6.992;2022-12-24T04:47:45;8.60;99.90
61201;DHT22;47065;52.898;6.992;2022-12-24T04:50:10;8.60;99.90
61201;DHT22;47065;52.898;6.992;2022-12-24T04:52:36;8.60;99.90
61201;DHT22;47065;52.898;6.992;2022-12-24T04:55:03;8.60;99.90
61201;DHT22;47065;52.898;6.992;2022-12-24T04:57:32;8.60;99.90
61201;DHT22;47065;52.898;6.992;2022-12-24T05:00:00;8.60;99.90
61201;DHT22;47065;52.898;6.992;2022-12-24T05:02:26;8.60;99.90
61201;DHT22;47065;52.898;6.992;2022-12-24T05:04:51;8.60;99.90
61201;DHT22;47065;52.898;6.992;2022-12-24T05:07:17;8.60;99.90
61201;DHT22;47065;52.898;6.992;2022-12-24T05:09:42;8.60;99.90
61201;DHT22;47065;52.898;6.992;2022-12-24T05:12:08;8.60;99.90
61201;DHT22;47065;52.898;6.992;2022-12-24T05:14:34;8.70;99.90
61201;DHT22;47065;52.898;6.992;2022-12-24T05:16:59;8.70;99.90
61201;DHT22;47065;52.898;6.992;2022-12-24T05:19:25;8.70;99.90
61201;DHT22;47065;52.898;6.992;2022-12-24T05:21:51;8.70;99.90
61201;DHT22;47065;52.898;6.992;2022-12-24T05:24:57;8.70;99.90
61201;DHT22;47065;52.898;6.992;2022-12-24T05:27:41;8.70;99.90
61201;DHT22;47065;52.898;6.992;2022-12-24T05:30:07;8.60;99.90
61201;DHT22;47065;52.898;6.992;2022-12-24T05:32:33;8.70;99.90
61201;DHT22;47065;52.898;6.992;2022-12-24T05:34:59;8.70;99.90
61201;DHT22;47065;52.898;6.992;2022-12-24T05:37:24;8.70;99.90
61201;DHT22;47065;52.898;6.992;2022-12-24T05:39:50;8.80;99.90
61201;DHT22;47065;52.898;6.992;2022-12-24T05:42:15;8.70;99.90
61201;DHT22;47065;52.898;6.992;2022-12-24T05:44:41;8.80;99.90
61201;DHT22;47065;52.898;6.992;2022-12-24T05:47:06;8.70;99.90
61201;DHT22;47065;52.898;6.992;2022-12-24T05:49:32;8.70;99.90
61201;DHT22;47065;52.898;6.992;2022-12-24T05:52:00;8.70;99.90
61201;DHT22;47065;52.898;6.992;2022-12-24T05:54:25;8.60;99.90
61201;DHT22;47065;52.898;6.992;2022-12-24T05:56:51;8.60;99.90
61201;DHT22;47065;52.898;6.992;2022-12-24T05:59:16;8.60;99.90
61201;DHT22;47065;52.898;6.992;2022-12-24T06:01:42;8.60;99.90
61201;DHT22;47065;52.898;6.992;2022-12-24T06:04:11;8.60;99.90
61201;DHT22;47065;52.898;6.992;2022-12-24T06:06:37;8.60;99.90
61201;DHT22;47065;52.898;6.992;2022-12-24T06:09:03;8.60;99.90
61201;DHT22;47065;52.898;6.992;2022-12-24T06:11:29;8.50;99.90
61201;DHT22;47065;52.898;6.992;2022-12-24T06:13:55;8.50;99.90
61201;DHT22;47065;52.898;6.992;2022-12-24T06:16:22;8.50;99.90
61201;DHT22;47065;52.898;6.992;2022-12-24T06:18:48;8.50;99.90
61201;DHT22;47065;52.898;6.992;2022-12-24T06:21:14;8.50;99.90
61201;DHT22;47065;52.898;6.992;2022-12-24T06:23:41;8.50;99.90
61201;DHT22;47065;52.898;6.992;2022-12-24T06:26:08;8.50;99.90
61201;DHT22;47065;52.898;6.992;2022-12-24T06:28:36;8.50;99.90
61201;DHT22;47065;52.898;6.992;2022-12-24T06:31:04;8.50;99.90
61201;DHT22;47065;52.898;6.992;2022-12-24T06:33:31;8.50;99.90
61201;DHT22;47065;52.898;6.992;2022-12-24T06:35:56;8.50;99.90
61201;DHT22;47065;52.898;6.992;2022-12-24T06:38:22;8.60;99.90
61201;DHT22;47065;52.898;6.992;2022-12-24T06:40:48;8.60;99.90
61201;DHT22;47065;52.898;6.992;2022-12-24T06:43:14;8.60;99.90
61201;DHT22;47065;52.898;6.992;2022-12-24T06:45:44;8.60;99.90
61201;DHT22;47065;52.898;6.992;2022-12-24T06:48:10;8.70;99.90
61201;DHT22;47065;52.898;6.992;2022-12-24T06:50:35;8.70;99.90
61201;DHT22;47065;52.898;6.992;2022-12-24T06:53:01;8.70;99.90
61201;DHT22;47065;52.898;6.992;2022-12-24T06:55:27;8.70;99.90
61201;DHT22;47065;52.898;6.992;2022-12-24T06:57:53;8.70;99.90
61201;DHT22;47065;52.898;6.992;2022-12-24T07:00:19;8.70;99.90
61201;DHT22;47065;52.898;6.992;2022-12-24T07:02:46;8.70;99.90
61201;DHT22;47065;52.898;6.992;2022-12-24T07:05:12;8.80;99.90
61201;DHT22;47065;52.898;6.992;2022-12-24T07:07:40;8.80;99.90
61201;DHT22;47065;52.898;6.992;2022-12-24T07:10:12;8.80;99.90
61201;DHT22;47065;52.898;6.992;2022-12-24T07:12:37;8.80;99.90
61201;DHT22;47065;52.898;6.992;2022-12-24T07:15:03;8.80;99.90
61201;DHT22;47065;52.898;6.992;2022-12-24T07:17:29;8.80;99.90
61201;DHT22;47065;52.898;6.992;2022-12-24T07:19:55;8.80;99.90
61201;DHT22;47065;52.898;6.992;2022-12-24T07:22:20;8.80;99.90
61201;DHT22;47065;52.898;6.992;2022-12-24T07:24:46;8.80;99.90
61201;DHT22;47065;52.898;6.992;2022-12-24T07:27:12;8.80;99.90
61201;DHT22;47065;52.898;6.992;2022-12-24T07:29:38;8.80;99.90
61201;DHT22;47065;52.898;6.992;2022-12-24T07:32:04;8.80;99.90
61201;DHT22;47065;52.898;6.992;2022-12-24T07:34:30;8.80;99.90
61201;DHT22;47065;52.898;6.992;2022-12-24T07:36:56;8.80;99.90
61201;DHT22;47065;52.898;6.992;2022-12-24T07:39:21;8.80;99.90
61201;DHT22;47065;52.898;6.992;2022-12-24T07:41:47;8.80;99.90
61201;DHT22;47065;52.898;6.992;2022-12-24T07:44:15;8.80;99.90
61201;DHT22;47065;52.898;6.992;2022-12-24T07:46:41;8.80;99.90
61201;DHT22;47065;52.898;6.992;2022-12-24T07:49:07;8.80;99.90
61201;DHT22;47065;52.898;6.992;2022-12-24T07:51:33;8.70;99.90
61201;DHT22;47065;52.898;6.992;2022-12-24T07:53:58;8.70;99.90
61201;DHT22;47065;52.898;6.992;2022-12-24T07:56:24;8.70;99.90
61201;DHT22;47065;52.898;6.992;2022-12-24T07:58:51;8.70;99.90
61201;DHT22;47065;52.898;6.992;2022-12-24T08:01:18;8.70;99.90
61201;DHT22;47065;52.898;6.992;2022-12-24T08:03:43;8.70;99.90
61201;DHT22;47065;52.898;6.992;2022-12-24T08:06:10;8.70;99.90
61201;DHT22;47065;52.898;6.992;2022-12-24T08:08:36;8.70;99.90
61201;DHT22;47065;52.898;6.992;2022-12-24T08:11:04;8.70;99.90
61201;DHT22;47065;52.898;6.992;2022-12-24T08:13:31;8.70;99.90
61201;DHT22;47065;52.898;6.992;2022-12-24T08:15:57;8.70;99.90
61201;DHT22;47065;52.898;6.992;2022-12-24T08:18:23;8.70;99.90
61201;DHT22;47065;52.898;6.992;2022-12-24T08:20:49;8.70;99.90
61201;DHT22;47065;52.898;6.992;2022-12-24T08:23:15;8.70;99.90
61201;DHT22;47065;52.898;6.992;2022-12-24T08:25:42;8.70;99.90
61201;DHT22;47065;52.898;6.992;2022-12-24T08:28:09;8.70;99.90
61201;DHT22;47065;52.898;6.992;2022-12-24T08:30:35;8.70;99.90
61201;DHT22;47065;52.898;6.992;2022-12-24T08:33:01;8.70;99.90
61201;DHT22;47065;52.898;6.992;2022-12-24T08:35:26;8.70;99.90
61201;DHT22;47065;52.898;6.992;2022-12-24T08:37:52;8.70;99.90
61201;DHT22;47065;52.898;6.992;2022-12-24T08:40:18;8.80;99.90
61201;DHT22;47065;52.898;6.992;2022-12-24T08:42:44;8.80;99.90
61201;DHT22;47065;52.898;6.992;2022-12-24T08:45:10;8.80;99.90
61201;DHT22;47065;52.898;6.992;2022-12-24T08:47:36;8.80;99.90
61201;DHT22;47065;52.898;6.992;2022-12-24T08:50:03;8.90;99.90
61201;DHT22;47065;52.898;6.992;2022-12-24T08:52:29;8.90;99.90
61201;DHT22;47065;52.898;6.992;2022-12-24T08:54:55;8.90;99.90
61201;DHT22;47065;52.898;6.992;2022-12-24T08:57:20;8.90;99.90
61201;DHT22;47065;52.898;6.992;2022-12-24T08:59:46;8.90;99.90
61201;DHT22;47065;52.898;6.992;2022-12-24T09:02:12;8.90;99.90
61201;DHT22;47065;52.898;6.992;2022-12-24T09:04:38;8.90;99.90
61201;DHT22;47065;52.898;6.992;2022-12-24T09:07:07;9.00;99.90
61201;DHT22;47065;52.898;6.992;2022-12-24T09:09:34;9.00;99.90
61201;DHT22;47065;52.898;6.992;2022-12-24T09:12:00;9.00;99.90
61201;DHT22;47065;52.898;6.992;2022-12-24T09:14:25;9.00;99.90
61201;DHT22;47065;52.898;6.992;2022-12-24T09:16:51;9.00;99.90
61201;DHT22;47065;52.898;6.992;2022-12-24T09:19:17;9.10;99.90
61201;DHT22;47065;52.898;6.992;2022-12-24T09:21:42;9.10;99.90
61201;DHT22;47065;52.898;6.992;2022-12-24T09:24:08;9.10;99.90
61201;DHT22;47065;52.898;6.992;2022-12-24T09:26:34;9.10;99.90
61201;DHT22;47065;52.898;6.992;2022-12-24T09:29:01;9.20;99.90
61201;DHT22;47065;52.898;6.992;2022-12-24T09:31:28;9.20;99.90
61201;DHT22;47065;52.898;6.992;2022-12-24T09:33:54;9.20;99.90
61201;DHT22;47065;52.898;6.992;2022-12-24T09:36:20;9.20;99.90
61201;DHT22;47065;52.898;6.992;2022-12-24T09:38:46;9.20;99.90
61201;DHT22;47065;52.898;6.992;2022-12-24T09:43:55;9.30;99.90
61201;DHT22;47065;52.898;6.992;2022-12-24T09:46:31;9.30;99.90
61201;DHT22;47065;52.898;6.992;2022-12-24T09:49:08;9.40;99.90
61201;DHT22;47065;52.898;6.992;2022-12-24T09:51:41;9.40;99.90
61201;DHT22;47065;52.898;6.992;2022-12-24T09:54:13;9.40;99.90
61201;DHT22;47065;52.898;6.992;2022-12-24T09:56:43;9.50;99.90
61201;DHT22;47065;52.898;6.992;2022-12-24T09:59:22;9.60;99.90
61201;DHT22;47065;52.898;6.992;2022-12-24T10:01:53;9.60;99.90
61201;DHT22;47065;52.898;6.992;2022-12-24T10:04:22;9.60;99.90
61201;DHT22;47065;52.898;6.992;2022-12-24T10:06:58;9.70;99.90
61201;DHT22;47065;52.898;6.992;2022-12-24T10:12:02;9.80;99.90
61201;DHT22;47065;52.898;6.992;2022-12-24T10:17:12;9.80;99.90
61201;DHT22;47065;52.898;6.992;2022-12-24T10:19:51;9.80;99.90
61201;DHT22;47065;52.898;6.992;2022-12-24T10:22:52;9.70;99.90
61201;DHT22;47065;52.898;6.992;2022-12-24T10:27:54;9.70;99.90
61201;DHT22;47065;52.898;6.992;2022-12-24T10:30:21;9.70;99.90
61201;DHT22;47065;52.898;6.992;2022-12-24T10:32:50;9.70;99.90
61201;DHT22;47065;52.898;6.992;2022-12-24T10:37:47;9.60;99.90
61201;DHT22;47065;52.898;6.992;2022-12-24T10:40:21;9.70;99.90
61201;DHT22;47065;52.898;6.992;2022-12-24T10:42:47;9.70;99.90
61201;DHT22;47065;52.898;6.992;2022-12-24T10:45:15;9.70;99.90
61201;DHT22;47065;52.898;6.992;2022-12-24T10:47:44;9.80;99.90
61201;DHT22;47065;52.898;6.992;2022-12-24T10:52:45;9.90;99.90
61201;DHT22;47065;52.898;6.992;2022-12-24T10:57:44;10.00;99.90
61201;DHT22;47065;52.898;6.992;2022-12-24T11:00:22;10.00;99.90
61201;DHT22;47065;52.898;6.992;2022-12-24T11:06:00;9.90;99.90
61201;DHT22;47065;52.898;6.992;2022-12-24T11:08:26;9.90;99.90
61201;DHT22;47065;52.898;6.992;2022-12-24T11:11:00;9.90;99.90
61201;DHT22;47065;52.898;6.992;2022-12-24T11:13:32;9.90;99.90
61201;DHT22;47065;52.898;6.992;2022-12-24T11:18:48;9.90;99.90
61201;DHT22;47065;52.898;6.992;2022-12-24T11:21:23;9.90;99.90
61201;DHT22;47065;52.898;6.992;2022-12-24T11:23:56;10.00;99.90
61201;DHT22;47065;52.898;6.992;2022-12-24T11:26:27;10.00;99.90
61201;DHT22;47065;52.898;6.992;2022-12-24T11:31:45;10.10;99.90
61201;DHT22;47065;52.898;6.992;2022-12-24T11:34:29;10.10;99.90
61201;DHT22;47065;52.898;6.992;2022-12-24T11:39:38;10.10;99.90
61201;DHT22;47065;52.898;6.992;2022-12-24T11:42:05;10.10;99.90
61201;DHT22;47065;52.898;6.992;2022-12-24T11:44:30;10.10;99.90
61201;DHT22;47065;52.898;6.992;2022-12-24T11:46:56;10.10;99.90
61201;DHT22;47065;52.898;6.992;2022-12-24T11:49:31;10.10;99.90
61201;DHT22;47065;52.898;6.992;2022-12-24T11:52:03;10.10;99.90
61201;DHT22;47065;52.898;6.992;2022-12-24T11:58:04;10.10;99.90
61201;DHT22;47065;52.898;6.992;2022-12-24T12:00:36;10.00;99.90
61201;DHT22;47065;52.898;6.992;2022-12-24T12:03:03;10.00;99.90
61201;DHT22;47065;52.898;6.992;2022-12-24T12:05:32;10.00;99.90
61201;DHT22;47065;52.898;6.992;2022-12-24T12:08:17;10.00;99.90
61201;DHT22;47065;52.898;6.992;2022-12-24T12:10:44;10.00;99.90
61201;DHT22;47065;52.898;6.992;2022-12-24T12:13:16;10.00;99.90
61201;DHT22;47065;52.898;6.992;2022-12-24T12:15:48;10.00;99.90
61201;DHT22;47065;52.898;6.992;2022-12-24T12:18:20;9.90;99.90
61201;DHT22;47065;52.898;6.992;2022-12-24T12:21:00;10.00;99.90
61201;DHT22;47065;52.898;6.992;2022-12-24T12:23:36;9.90;99.90
61201;DHT22;47065;52.898;6.992;2022-12-24T12:31:54;10.00;99.90
61201;DHT22;47065;52.898;6.992;2022-12-24T12:34:34;10.00;99.90
61201;DHT22;47065;52.898;6.992;2022-12-24T12:37:04;10.10;99.90
61201;DHT22;47065;52.898;6.992;2022-12-24T12:39:33;10.00;99.90
61201;DHT22;47065;52.898;6.992;2022-12-24T12:48:20;10.10;99.90
61201;DHT22;47065;52.898;6.992;2022-12-24T12:54:16;10.00;99.90
61201;DHT22;47065;52.898;6.992;2022-12-24T12:56:29;10.00;99.90
61201;DHT22;47065;52.898;6.992;2022-12-24T13:01:49;10.00;99.90
61201;DHT22;47065;52.898;6.992;2022-12-24T13:20:31;10.10;99.90
61201;DHT22;47065;52.898;6.992;2022-12-24T13:23:21;10.00;99.90
61201;DHT22;47065;52.898;6.992;2022-12-24T13:25:50;10.00;99.90
61201;DHT22;47065;52.898;6.992;2022-12-24T13:30:52;9.90;99.90
61201;DHT22;47065;52.898;6.992;2022-12-24T13:36:14;9.80;99.90
61201;DHT22;47065;52.898;6.992;2022-12-24T13:46:58;9.80;99.90
61201;DHT22;47065;52.898;6.992;2022-12-24T13:49:32;9.70;99.90
61201;DHT22;47065;52.898;6.992;2022-12-24T13:54:34;9.60;99.90
61201;DHT22;47065;52.898;6.992;2022-12-24T13:57:02;9.60;99.90
61201;DHT22;47065;52.898;6.992;2022-12-24T13:59:45;9.60;99.90
61201;DHT22;47065;52.898;6.992;2022-12-24T14:02:20;9.50;99.90
61201;DHT22;47065;52.898;6.992;2022-12-24T14:04:49;9.40;99.90
61201;DHT22;47065;52.898;6.992;2022-12-24T14:07:18;9.40;99.90
61201;DHT22;47065;52.898;6.992;2022-12-24T14:09:48;9.40;99.90
61201;DHT22;47065;52.898;6.992;2022-12-24T14:12:31;9.30;99.90
61201;DHT22;47065;52.898;6.992;2022-12-24T14:14:56;9.30;99.90
61201;DHT22;47065;52.898;6.992;2022-12-24T14:17:24;9.30;99.90
61201;DHT22;47065;52.898;6.992;2022-12-24T14:19:53;9.30;99.90
61201;DHT22;47065;52.898;6.992;2022-12-24T14:22:26;9.30;99.90
61201;DHT22;47065;52.898;6.992;2022-12-24T14:25:02;9.40;99.90
61201;DHT22;47065;52.898;6.992;2022-12-24T14:32:45;9.40;99.90
61201;DHT22;47065;52.898;6.992;2022-12-24T14:35:16;9.40;99.90
61201;DHT22;47065;52.898;6.992;2022-12-24T14:38:04;9.40;99.90
61201;DHT22;47065;52.898;6.992;2022-12-24T14:40:33;9.40;99.90
61201;DHT22;47065;52.898;6.992;2022-12-24T14:48:41;9.40;99.90
61201;DHT22;47065;52.898;6.992;2022-12-24T14:51:21;9.40;99.90
61201;DHT22;47065;52.898;6.992;2022-12-24T14:57:25;9.30;99.90
61201;DHT22;47065;52.898;6.992;2022-12-24T15:00:00;9.30;99.90
61201;DHT22;47065;52.898;6.992;2022-12-24T15:02:37;9.30;99.90
61201;DHT22;47065;52.898;6.992;2022-12-24T15:07:44;9.30;99.90
61201;DHT22;47065;52.898;6.992;2022-12-24T15:12:46;9.20;99.90
61201;DHT22;47065;52.898;6.992;2022-12-24T15:15:16;9.20;99.90
61201;DHT22;47065;52.898;6.992;2022-12-24T15:17:43;9.20;99.90
61201;DHT22;47065;52.898;6.992;2022-12-24T15:20:15;9.20;99.90
61201;DHT22;47065;52.898;6.992;2022-12-24T15:22:43;9.20;99.90
61201;DHT22;47065;52.898;6.992;2022-12-24T15:25:35;9.10;99.90
61201;DHT22;47065;52.898;6.992;2022-12-24T15:28:01;9.20;99.90
61201;DHT22;47065;52.898;6.992;2022-12-24T15:30:28;9.10;99.90
61201;DHT22;47065;52.898;6.992;2022-12-24T15:32:56;9.10;99.90
61201;DHT22;47065;52.898;6.992;2022-12-24T15:38:26;9.10;99.90
61201;DHT22;47065;52.898;6.992;2022-12-24T15:40:54;9.00;99.90
61201;DHT22;47065;52.898;6.992;2022-12-24T15:43:21;9.00;99.90
61201;DHT22;47065;52.898;6.992;2022-12-24T15:45:47;8.90;99.90
61201;DHT22;47065;52.898;6.992;2022-12-24T15:48:17;8.90;99.90
61201;DHT22;47065;52.898;6.992;2022-12-24T15:50:52;8.80;99.90
61201;DHT22;47065;52.898;6.992;2022-12-24T15:53:25;8.80;99.90
61201;DHT22;47065;52.898;6.992;2022-12-24T15:58:47;8.70;99.90
61201;DHT22;47065;52.898;6.992;2022-12-24T16:03:52;8.60;99.90
61201;DHT22;47065;52.898;6.992;2022-12-24T16:06:19;8.60;99.90
61201;DHT22;47065;52.898;6.992;2022-12-24T16:08:46;8.60;99.90
61201;DHT22;47065;52.898;6.992;2022-12-24T16:11:40;8.60;99.90
61201;DHT22;47065;52.898;6.992;2022-12-24T16:14:12;8.60;99.90
61201;DHT22;47065;52.898;6.992;2022-12-24T16:16:45;8.50;99.90
61201;DHT22;47065;52.898;6.992;2022-12-24T16:19:23;8.50;99.90
61201;DHT22;47065;52.898;6.992;2022-12-24T16:21:57;8.40;99.90
61201;DHT22;47065;52.898;6.992;2022-12-24T16:24:29;8.40;99.90
61201;DHT22;47065;52.898;6.992;2022-12-24T16:26:56;8.30;99.90
61201;DHT22;47065;52.898;6.992;2022-12-24T16:29:22;8.30;99.90
61201;DHT22;47065;52.898;6.992;2022-12-24T16:31:57;8.30;99.90
61201;DHT22;47065;52.898;6.992;2022-12-24T16:34:25;8.30;99.90
61201;DHT22;47065;52.898;6.992;2022-12-24T16:36:52;8.20;99.90
61201;DHT22;47065;52.898;6.992;2022-12-24T16:39:20;8.20;99.90
61201;DHT22;47065;52.898;6.992;2022-12-24T16:41:54;8.10;99.90
61201;DHT22;47065;52.898;6.992;2022-12-24T16:44:39;8.10;99.90
61201;DHT22;47065;52.898;6.992;2022-12-24T16:47:08;8.10;99.90
61201;DHT22;47065;52.898;6.992;2022-12-24T16:49:36;8.00;99.90
61201;DHT22;47065;52.898;6.992;2022-12-24T16:52:09;8.00;99.90
61201;DHT22;47065;52.898;6.992;2022-12-24T16:54:39;7.90;99.90
61201;DHT22;47065;52.898;6.992;2022-12-24T16:57:04;7.90;99.90
61201;DHT22;47065;52.898;6.992;2022-12-24T16:59:30;7.90;99.90
61201;DHT22;47065;52.898;6.992;2022-12-24T17:01:57;7.80;99.90
61201;DHT22;47065;52.898;6.992;2022-12-24T17:04:22;7.80;99.90
61201;DHT22;47065;52.898;6.992;2022-12-24T17:06:48;7.80;99.90
61201;DHT22;47065;52.898;6.992;2022-12-24T17:09:15;7.80;99.90
61201;DHT22;47065;52.898;6.992;2022-12-24T17:11:40;7.70;99.90
61201;DHT22;47065;52.898;6.992;2022-12-24T17:14:06;7.80;99.90
61201;DHT22;47065;52.898;6.992;2022-12-24T17:16:32;7.70;99.90
61201;DHT22;47065;52.898;6.992;2022-12-24T17:18:57;7.70;99.90
61201;DHT22;47065;52.898;6.992;2022-12-24T17:21:23;7.60;99.90
61201;DHT22;47065;52.898;6.992;2022-12-24T17:23:48;7.60;99.90
61201;DHT22;47065;52.898;6.992;2022-12-24T17:26:14;7.60;99.90
61201;DHT22;47065;52.898;6.992;2022-12-24T17:28:41;7.60;99.90
61201;DHT22;47065;52.898;6.992;2022-12-24T17:31:08;7.60;99.90
61201;DHT22;47065;52.898;6.992;2022-12-24T17:33:34;7.50;99.90
61201;DHT22;47065;52.898;6.992;2022-12-24T17:36:00;7.50;99.90
61201;DHT22;47065;52.898;6.992;2022-12-24T17:38:26;7.50;99.90
61201;DHT22;47065;52.898;6.992;2022-12-24T17:40:58;7.50;99.90
61201;DHT22;47065;52.898;6.992;2022-12-24T17:43:24;7.40;99.90
61201;DHT22;47065;52.898;6.992;2022-12-24T17:45:49;7.40;99.90
61201;DHT22;47065;52.898;6.992;2022-12-24T17:48:15;7.30;99.90
61201;DHT22;47065;52.898;6.992;2022-12-24T17:50:40;7.30;99.90
61201;DHT22;47065;52.898;6.992;2022-12-24T17:53:06;7.20;99.90
61201;DHT22;47065;52.898;6.992;2022-12-24T17:55:32;7.10;99.90
61201;DHT22;47065;52.898;6.992;2022-12-24T17:57:57;7.10;99.90
61201;DHT22;47065;52.898;6.992;2022-12-24T18:00:23;7.00;99.90
61201;DHT22;47065;52.898;6.992;2022-12-24T18:02:51;7.00;99.90
61201;DHT22;47065;52.898;6.992;2022-12-24T18:05:17;7.00;99.90
61201;DHT22;47065;52.898;6.992;2022-12-24T18:07:43;6.90;99.90
61201;DHT22;47065;52.898;6.992;2022-12-24T18:10:08;6.90;99.90
61201;DHT22;47065;52.898;6.992;2022-12-24T18:12:35;6.80;99.90
61201;DHT22;47065;52.898;6.992;2022-12-24T18:15:00;6.80;99.90